Terminal Aerodrome Forecast
Issued by NWS Cleveland, OH

Home | Current Version | Previous Version | Graphics & Text | Print | Product List | Glossary On
Versions: 1 2 3 4 5 6 7 8 9 10 11 12 13 14 15 16 17 18 19 20 21 22 23 24
000
FTUS41 KCLE 242014 AAA
TAFERI
TAF AMD
KERI 242014Z 2420/2518 05010KT P6SM VCSH BKN019 OVC080
      TEMPO 2421/2501 BKN022
     FM250400 12012G18KT 4SM -RA BR OVC015
     FM250900 16018G28KT 3SM -RA BR BKN010 OVC025
     FM251600 24020G30KT 6SM -SHRA BR SCT008 OVC020=

USA.gov is the U.S. government's official web portal to all federal, state and local government web resources and services.